createdAt,value
2019-01-17T00:00:30.922Z,17.23
2019-01-17T00:03:06.930Z,18.10
2019-01-17T00:05:37.251Z,12.70
2019-01-17T00:08:07.490Z,14.53
2019-01-17T00:10:37.728Z,22.90
2019-01-17T00:13:24.363Z,21.10
2019-01-17T00:16:19.893Z,26.03
2019-01-17T00:19:05.627Z,29.90
2019-01-17T00:21:44.598Z,37.37
2019-01-17T00:24:30.002Z,38.80
2019-01-17T00:27:02.994Z,41.73
2019-01-17T00:29:42.429Z,35.10
2019-01-17T00:32:12.684Z,40.23
2019-01-17T00:34:46.020Z,44.10
2019-01-17T00:37:16.354Z,48.27
2019-01-17T00:39:49.348Z,51.07
2019-01-17T00:42:22.413Z,49.40
2019-01-17T00:45:01.789Z,47.83
2019-01-17T00:47:38.138Z,42.30
2019-01-17T00:50:28.898Z,36.10
2019-01-17T00:52:59.587Z,39.13
2019-01-17T00:55:32.412Z,52.47
2019-01-17T00:58:11.641Z,79.87
2019-01-17T01:00:41.901Z,120.50
2019-01-17T01:03:27.288Z,159.30
2019-01-17T01:06:00.323Z,110.03
2019-01-17T01:08:30.625Z,63.00
2019-01-17T01:11:13.103Z,55.30
2019-01-17T01:13:49.761Z,52.73
2019-01-17T01:16:29.608Z,42.73
2019-01-17T01:18:59.936Z,39.50
2019-01-17T01:21:39.441Z,46.00
2019-01-17T01:24:15.347Z,38.87
2019-01-17T01:26:53.676Z,44.30
2019-01-17T01:29:30.215Z,47.23
2019-01-17T01:32:03.586Z,56.27
2019-01-17T01:34:33.835Z,40.60
2019-01-17T01:37:16.156Z,33.33
2019-01-17T01:39:52.634Z,35.87
2019-01-17T01:42:39.118Z,36.53
2019-01-17T01:45:19.659Z,43.30
2019-01-17T01:47:53.256Z,49.37
2019-01-17T01:50:29.537Z,41.77
2019-01-17T01:53:02.671Z,37.67
2019-01-17T01:55:31.358Z,21.23
2019-01-17T01:58:00.051Z,14.57
2019-01-17T02:00:28.780Z,18.77
2019-01-17T02:02:57.476Z,22.90
2019-01-17T02:05:26.158Z,30.03
2019-01-17T02:07:54.876Z,23.63
2019-01-17T02:10:23.747Z,24.03
2019-01-17T02:12:52.433Z,18.70
2019-01-17T02:15:23.483Z,16.83
2019-01-17T02:17:52.167Z,25.33
2019-01-17T02:20:20.855Z,36.20
2019-01-17T02:22:49.948Z,32.40
2019-01-17T02:25:18.622Z,22.23
2019-01-17T02:27:47.220Z,19.80
2019-01-17T02:30:16.544Z,14.60
2019-01-17T02:32:45.212Z,11.50
2019-01-17T02:35:13.882Z,16.00
2019-01-17T02:37:42.645Z,24.47
2019-01-17T02:40:12.334Z,25.23
2019-01-17T02:42:41.020Z,24.60
2019-01-17T02:45:13.063Z,24.20
2019-01-17T02:47:41.839Z,25.77
2019-01-17T02:50:11.812Z,16.80
2019-01-17T02:52:40.840Z,7.97
2019-01-17T02:55:10.910Z,10.50
2019-01-17T02:57:39.584Z,12.07
2019-01-17T03:00:14.218Z,14.10
2019-01-17T03:02:42.902Z,12.60
2019-01-17T03:05:11.887Z,12.50
2019-01-17T03:07:40.723Z,15.67
2019-01-17T03:10:12.578Z,15.93
2019-01-17T03:12:41.347Z,15.37
2019-01-17T03:15:10.171Z,12.33
2019-01-17T03:17:38.852Z,14.67
2019-01-17T03:20:10.412Z,13.30
2019-01-17T03:22:39.227Z,12.63
2019-01-17T03:25:09.731Z,10.77
2019-01-17T03:27:38.412Z,11.30
2019-01-17T03:30:10.037Z,11.87
2019-01-17T03:32:38.714Z,11.97
2019-01-17T03:35:07.890Z,10.63
2019-01-17T03:37:36.672Z,11.20
2019-01-17T03:40:08.257Z,10.40
2019-01-17T03:42:36.956Z,17.87
2019-01-17T03:45:08.797Z,11.37
2019-01-17T03:47:37.476Z,11.10
2019-01-17T03:50:09.246Z,12.30
2019-01-17T03:52:38.070Z,14.90
2019-01-17T03:55:09.165Z,16.30
2019-01-17T03:57:37.849Z,13.47
2019-01-17T04:00:09.595Z,15.77
2019-01-17T04:02:38.210Z,14.13
2019-01-17T04:05:07.985Z,16.33
2019-01-17T04:07:36.699Z,17.47
2019-01-17T04:10:08.780Z,13.27
2019-01-17T04:12:37.466Z,8.07
2019-01-17T04:15:07.863Z,6.97
2019-01-17T04:17:36.600Z,5.33
2019-01-17T04:20:08.347Z,6.03
2019-01-17T04:22:37.270Z,7.70
2019-01-17T04:25:08.655Z,17.03
2019-01-17T04:27:37.382Z,11.70
2019-01-17T04:30:17.344Z,16.33
2019-01-17T04:32:46.234Z,33.27
2019-01-17T04:35:14.861Z,48.13
2019-01-17T04:37:43.576Z,54.03
2019-01-17T04:40:13.667Z,57.47
2019-01-17T04:42:42.350Z,61.27
2019-01-17T04:45:13.036Z,54.57
2019-01-17T04:47:41.711Z,72.53
2019-01-17T04:50:12.607Z,111.57
2019-01-17T04:52:41.831Z,87.60
2019-01-17T04:55:12.319Z,78.77
2019-01-17T04:57:41.007Z,67.53
2019-01-17T05:00:21.043Z,119.20
2019-01-17T05:02:49.839Z,174.57
2019-01-17T05:05:18.511Z,136.27
2019-01-17T05:07:47.319Z,215.53
2019-01-17T05:10:17.636Z,174.67
2019-01-17T05:12:46.320Z,271.20
2019-01-17T05:15:15.271Z,245.17
2019-01-17T05:17:43.943Z,251.20
2019-01-17T05:20:16.518Z,159.70
2019-01-17T05:22:48.217Z,147.33
2019-01-17T05:25:16.986Z,133.00
2019-01-17T05:27:45.665Z,78.87
2019-01-17T05:30:16.926Z,79.17
2019-01-17T05:32:45.717Z,117.87
2019-01-17T05:35:14.714Z,111.73
2019-01-17T05:37:43.456Z,96.23
2019-01-17T05:40:15.351Z,96.90
2019-01-17T05:42:44.226Z,121.27
2019-01-17T05:45:17.777Z,114.47
2019-01-17T05:47:46.458Z,99.50
2019-01-17T05:50:17.171Z,112.73
2019-01-17T05:52:46.015Z,113.20
2019-01-17T05:55:19.758Z,84.07
2019-01-17T05:57:45.210Z,80.90
2019-01-17T06:00:19.205Z,69.27
2019-01-17T06:02:47.871Z,61.93
2019-01-17T06:05:17.857Z,64.53
2019-01-17T06:07:46.692Z,58.23
2019-01-17T06:10:15.475Z,44.20
2019-01-17T06:12:45.599Z,33.30
2019-01-17T06:15:21.956Z,28.33
2019-01-17T06:17:50.637Z,29.73
2019-01-17T06:20:19.455Z,27.07
2019-01-17T06:22:48.282Z,30.73
2019-01-17T06:25:16.984Z,34.27
2019-01-17T06:27:45.656Z,30.43
2019-01-17T06:30:15.797Z,30.20
2019-01-17T06:32:44.499Z,47.97
2019-01-17T06:35:13.582Z,56.70
2019-01-17T06:37:42.310Z,59.83
2019-01-17T06:40:25.770Z,64.17
2019-01-17T06:42:54.345Z,70.87
2019-01-17T06:45:23.035Z,66.70
2019-01-17T06:47:52.727Z,79.87
2019-01-17T06:50:21.468Z,138.37
2019-01-17T06:52:50.157Z,163.50
2019-01-17T06:55:18.888Z,174.17
2019-01-17T06:57:47.733Z,214.67
2019-01-17T07:00:17.828Z,191.63
2019-01-17T07:02:46.717Z,201.77
2019-01-17T07:05:16.386Z,220.07
2019-01-17T07:07:45.185Z,274.00
2019-01-17T07:10:18.147Z,274.03
2019-01-17T07:12:46.960Z,260.63
2019-01-17T07:15:15.649Z,266.23
2019-01-17T07:17:44.331Z,270.43
2019-01-17T07:20:15.595Z,266.07
2019-01-17T07:22:44.779Z,221.67
2019-01-17T07:25:13.592Z,157.90
2019-01-17T07:27:42.354Z,145.67
2019-01-17T07:30:16.547Z,152.27
2019-01-17T07:32:45.374Z,225.47
2019-01-17T07:35:14.046Z,168.07
2019-01-17T07:37:42.730Z,149.00
2019-01-17T07:40:12.952Z,141.70
2019-01-17T07:42:41.728Z,129.40
2019-01-17T07:45:16.387Z,147.47
2019-01-17T07:47:45.284Z,145.83
2019-01-17T07:50:14.066Z,117.43
2019-01-17T07:52:42.755Z,143.60
2019-01-17T07:55:11.619Z,94.53
2019-01-17T07:57:40.295Z,70.67
2019-01-17T08:00:17.881Z,77.30
2019-01-17T08:02:46.576Z,58.87
2019-01-17T08:05:15.395Z,63.87
2019-01-17T08:07:44.194Z,49.43
2019-01-17T08:10:15.538Z,40.77
2019-01-17T08:12:44.317Z,32.73
2019-01-17T08:15:14.440Z,47.63
2019-01-17T08:17:43.224Z,54.87
2019-01-17T08:20:17.915Z,36.30
2019-01-17T08:22:46.624Z,11.47
2019-01-17T08:25:15.394Z,7.43
2019-01-17T08:27:44.533Z,8.50
2019-01-17T08:30:22.071Z,8.23
2019-01-17T08:32:50.674Z,10.23
2019-01-17T08:35:19.539Z,6.33
2019-01-17T08:37:48.302Z,6.43
2019-01-17T08:40:22.733Z,7.60
2019-01-17T08:42:51.414Z,9.30
2019-01-17T08:45:20.240Z,8.93
2019-01-17T08:47:48.925Z,10.83
2019-01-17T08:50:17.597Z,7.33
2019-01-17T08:52:46.952Z,12.10
2019-01-17T08:55:15.641Z,15.83
2019-01-17T08:57:44.322Z,7.53
2019-01-17T09:00:22.424Z,5.87
2019-01-17T09:02:51.093Z,6.13
2019-01-17T09:05:19.781Z,14.10
2019-01-17T09:07:48.911Z,14.37
2019-01-17T09:10:24.632Z,12.03
2019-01-17T09:12:53.376Z,10.00
2019-01-17T09:15:27.893Z,12.20
2019-01-17T09:17:56.562Z,9.20
2019-01-17T09:20:25.295Z,7.03
2019-01-17T09:22:53.975Z,8.73
2019-01-17T09:25:22.761Z,7.23
2019-01-17T09:27:51.566Z,9.30
2019-01-17T09:30:21.659Z,13.43
2019-01-17T09:32:50.546Z,10.10
2019-01-17T09:35:19.887Z,10.93
2019-01-17T09:37:48.579Z,10.40
2019-01-17T09:40:21.821Z,11.73
2019-01-17T09:42:50.562Z,7.93
2019-01-17T09:45:19.344Z,8.67
2019-01-17T09:47:48.039Z,9.53
2019-01-17T09:50:19.039Z,11.77
2019-01-17T09:52:47.937Z,12.13
2019-01-17T09:55:16.719Z,10.03
2019-01-17T09:57:45.492Z,10.33
2019-01-17T10:00:19.750Z,20.60
2019-01-17T10:02:48.441Z,14.90
2019-01-17T10:05:17.490Z,16.50
2019-01-17T10:07:46.183Z,18.67
2019-01-17T10:10:17.511Z,21.70
2019-01-17T10:12:47.095Z,19.33
2019-01-17T10:15:24.605Z,20.17
2019-01-17T10:17:56.251Z,26.90
2019-01-17T10:20:45.705Z,25.03
2019-01-17T10:23:20.284Z,33.63
2019-01-17T10:26:05.131Z,25.13
2019-01-17T10:29:02.278Z,24.17
2019-01-17T10:31:42.391Z,21.57
2019-01-17T10:34:35.105Z,27.83
2019-01-17T10:37:09.181Z,33.10
2019-01-17T10:40:05.042Z,34.27
2019-01-17T10:42:39.282Z,30.33
2019-01-17T10:45:17.028Z,29.27
2019-01-17T10:47:51.315Z,27.83
2019-01-17T10:50:31.913Z,25.03
2019-01-17T10:53:09.435Z,22.30
2019-01-17T10:55:53.496Z,24.33
2019-01-17T10:58:27.936Z,9.23
2019-01-17T11:01:29.793Z,17.20
2019-01-17T11:04:19.255Z,12.47
2019-01-17T11:07:02.742Z,15.10
2019-01-17T11:09:49.144Z,22.77
2019-01-17T11:12:23.520Z,14.90
2019-01-17T11:15:11.769Z,13.00
2019-01-17T11:17:55.443Z,13.33
2019-01-17T11:20:41.856Z,28.07
2019-01-17T11:23:25.595Z,11.27
2019-01-17T11:26:16.852Z,10.77
2019-01-17T11:28:51.082Z,8.70
2019-01-17T11:31:22.682Z,7.90
2019-01-17T11:33:57.011Z,7.57
2019-01-17T11:36:55.573Z,12.67
2019-01-17T11:39:41.965Z,8.10
2019-01-17T11:42:29.993Z,9.57
2019-01-17T11:45:01.670Z,10.33
2019-01-17T11:47:35.837Z,7.87
2019-01-17T11:50:16.956Z,8.70
2019-01-17T11:53:14.571Z,13.50
2019-01-17T11:55:57.988Z,30.80
2019-01-17T11:58:36.589Z,5.97
2019-01-17T12:01:40.175Z,7.63
2019-01-17T12:04:14.461Z,8.97
2019-01-17T12:06:43.140Z,7.70
2019-01-17T12:09:11.906Z,8.03
2019-01-17T12:11:40.594Z,11.87
2019-01-17T12:14:09.259Z,9.27
2019-01-17T12:16:38.025Z,7.27
2019-01-17T12:19:06.702Z,58.47
2019-01-17T12:21:35.402Z,7.53
2019-01-17T12:24:04.354Z,8.47
2019-01-17T12:26:33.042Z,8.90
2019-01-17T12:29:01.729Z,15.17
2019-01-17T12:31:30.462Z,10.87
2019-01-17T12:33:59.145Z,15.93
2019-01-17T12:36:27.964Z,12.43
2019-01-17T12:38:56.692Z,9.93
2019-01-17T12:41:25.368Z,8.73
2019-01-17T12:43:54.046Z,11.83
2019-01-17T12:46:22.857Z,11.23
2019-01-17T12:48:51.523Z,9.80
2019-01-17T12:51:20.206Z,11.13
2019-01-17T12:53:49.332Z,13.77
2019-01-17T12:56:18.014Z,12.20
2019-01-17T12:58:46.696Z,9.60
2019-01-17T13:01:16.115Z,10.03
2019-01-17T13:03:44.858Z,10.00
2019-01-17T13:06:13.533Z,8.43
2019-01-17T13:08:42.780Z,12.23
2019-01-17T13:11:11.448Z,14.87
2019-01-17T13:13:40.121Z,9.80
2019-01-17T13:16:08.881Z,12.63
2019-01-17T13:18:37.564Z,18.27
2019-01-17T13:21:06.344Z,11.90
2019-01-17T13:23:35.116Z,15.43
2019-01-17T13:26:04.005Z,14.60
2019-01-17T13:28:32.688Z,17.57
2019-01-17T13:31:01.530Z,19.47
2019-01-17T13:33:30.146Z,24.73
2019-01-17T13:35:58.767Z,16.73
2019-01-17T13:38:27.980Z,19.57
2019-01-17T13:40:56.667Z,26.80
2019-01-17T13:43:25.290Z,15.80
2019-01-17T13:45:53.921Z,17.77
2019-01-17T13:48:22.620Z,21.97
2019-01-17T13:50:51.311Z,29.83
2019-01-17T13:53:20.084Z,28.63
2019-01-17T13:55:48.758Z,16.77
2019-01-17T13:58:17.443Z,19.63
2019-01-17T14:00:46.266Z,13.70
2019-01-17T14:03:14.897Z,49.67
2019-01-17T14:05:43.575Z,23.10
2019-01-17T14:08:12.669Z,14.77
2019-01-17T14:10:42.134Z,13.50
2019-01-17T14:13:10.817Z,19.20
2019-01-17T14:15:40.631Z,17.73
2019-01-17T14:18:09.245Z,18.33
2019-01-17T14:20:37.861Z,29.93
2019-01-17T14:23:06.678Z,20.87
2019-01-17T14:25:35.356Z,21.07
2019-01-17T14:28:04.127Z,20.83
2019-01-17T14:30:35.092Z,18.33
2019-01-17T14:33:03.728Z,25.53
2019-01-17T14:35:32.514Z,14.33
2019-01-17T14:38:01.249Z,14.83
2019-01-17T14:40:29.916Z,14.53
2019-01-17T14:43:00.161Z,19.10
2019-01-17T14:45:28.898Z,18.93
2019-01-17T14:47:57.585Z,31.37
2019-01-17T14:50:28.762Z,38.87
2019-01-17T14:52:57.571Z,36.30
2019-01-17T14:55:26.259Z,38.77
2019-01-17T14:57:55.040Z,50.57
2019-01-17T15:00:28.941Z,55.97
2019-01-17T15:02:57.625Z,60.93
2019-01-17T15:05:26.301Z,60.50
2019-01-17T15:07:55.157Z,44.10
2019-01-17T15:10:26.747Z,56.33
2019-01-17T15:12:55.428Z,71.17
2019-01-17T15:15:24.231Z,77.13
2019-01-17T15:17:52.900Z,91.70
2019-01-17T15:20:21.774Z,82.13
2019-01-17T15:22:52.414Z,72.50
2019-01-17T15:25:21.089Z,81.57
2019-01-17T15:27:49.774Z,340.17
2019-01-17T15:30:21.125Z,241.20
2019-01-17T15:32:50.012Z,217.57
2019-01-17T15:35:18.706Z,251.33
2019-01-17T15:37:47.548Z,230.97
2019-01-17T15:40:22.039Z,238.00
2019-01-17T15:42:50.750Z,314.03
2019-01-17T15:45:19.477Z,251.80
2019-01-17T15:47:48.161Z,272.10
2019-01-17T15:50:18.914Z,220.60
2019-01-17T15:52:47.748Z,268.93
2019-01-17T15:55:17.538Z,251.50
2019-01-17T15:57:46.225Z,366.77
2019-01-17T16:00:18.203Z,382.70
2019-01-17T16:02:46.897Z,414.87
2019-01-17T16:05:15.781Z,374.93
2019-01-17T16:07:44.934Z,330.73
2019-01-17T16:10:15.729Z,372.70
2019-01-17T16:12:44.432Z,361.33
2019-01-17T16:15:21.773Z,371.57
2019-01-17T16:17:50.572Z,347.17
2019-01-17T16:20:19.253Z,364.40
2019-01-17T16:22:48.016Z,350.33
2019-01-17T16:25:16.699Z,333.30
2019-01-17T16:27:45.388Z,341.53
2019-01-17T16:30:29.801Z,390.77
2019-01-17T16:32:58.490Z,473.53
2019-01-17T16:35:27.172Z,528.47
2019-01-17T16:37:56.030Z,513.20
2019-01-17T16:40:24.721Z,479.13
2019-01-17T16:42:53.416Z,422.73
2019-01-17T16:45:23.795Z,417.53
2019-01-17T16:47:52.479Z,419.13
2019-01-17T16:50:23.651Z,421.90
2019-01-17T16:52:52.381Z,422.17
2019-01-17T16:55:21.178Z,409.50
2019-01-17T16:57:49.864Z,382.63
2019-01-17T17:00:24.489Z,367.07
2019-01-17T17:02:54.579Z,359.73
2019-01-17T17:05:23.263Z,380.30
2019-01-17T17:07:52.000Z,428.23
2019-01-17T17:10:20.692Z,416.67
2019-01-17T17:12:49.389Z,423.87
2019-01-17T17:15:18.324Z,417.00
2019-01-17T17:17:47.017Z,373.90
2019-01-17T17:20:21.554Z,337.03
2019-01-17T17:22:50.511Z,345.40
2019-01-17T17:25:19.198Z,361.03
2019-01-17T17:27:47.888Z,380.00
2019-01-17T17:30:19.201Z,389.23
2019-01-17T17:32:47.890Z,356.63
2019-01-17T17:35:16.571Z,326.63
2019-01-17T17:37:45.325Z,283.93
2019-01-17T17:40:22.538Z,235.33
2019-01-17T17:42:51.440Z,296.73
2019-01-17T17:45:20.203Z,271.00
2019-01-17T17:47:48.894Z,221.33
2019-01-17T17:50:20.219Z,191.73
2019-01-17T17:52:48.899Z,182.70
2019-01-17T17:55:18.782Z,178.70
2019-01-17T17:57:47.594Z,170.47
2019-01-17T18:00:20.383Z,98.70
2019-01-17T18:02:49.566Z,80.60
2019-01-17T18:05:18.382Z,55.50
2019-01-17T18:07:47.067Z,36.20
2019-01-17T18:10:17.046Z,34.07
2019-01-17T18:12:46.093Z,29.17
2019-01-17T18:15:16.593Z,28.10
2019-01-17T18:17:45.471Z,15.10
2019-01-17T18:20:15.990Z,16.40
2019-01-17T18:22:44.773Z,16.47
2019-01-17T18:25:13.547Z,13.87
2019-01-17T18:27:42.482Z,14.10
2019-01-17T18:30:14.332Z,62.37
2019-01-17T18:32:43.018Z,61.93
2019-01-17T18:35:12.049Z,18.23
2019-01-17T18:37:40.728Z,17.03
2019-01-17T18:40:12.008Z,13.53
2019-01-17T18:42:41.066Z,538.53
2019-01-17T18:45:18.241Z,483.73
2019-01-17T18:47:46.984Z,323.93
2019-01-17T18:50:18.585Z,133.83
2019-01-17T18:52:47.370Z,412.63
2019-01-17T18:55:17.503Z,37.90
2019-01-17T18:57:47.062Z,455.60
2019-01-17T19:00:22.814Z,370.80
2019-01-17T19:02:51.612Z,286.60
2019-01-17T19:05:20.492Z,178.47
2019-01-17T19:07:49.628Z,77.67
2019-01-17T19:10:19.727Z,33.77
2019-01-17T19:12:48.400Z,54.87
2019-01-17T19:15:22.430Z,141.90
2019-01-17T19:17:51.108Z,118.57
2019-01-17T19:20:21.772Z,112.17
2019-01-17T19:22:50.626Z,153.13
2019-01-17T19:25:19.425Z,154.33
2019-01-17T19:27:48.219Z,179.37
2019-01-17T19:30:22.490Z,188.20
2019-01-17T19:32:51.487Z,201.40
2019-01-17T19:35:20.581Z,266.90
2019-01-17T19:37:51.029Z,407.43
2019-01-17T19:40:24.909Z,399.67
2019-01-17T19:42:53.703Z,466.10
2019-01-17T19:45:22.471Z,442.50
2019-01-17T19:47:51.161Z,412.63
2019-01-17T19:50:31.539Z,321.43
2019-01-17T19:53:00.227Z,304.03
2019-01-17T19:55:28.922Z,311.30
2019-01-17T19:57:57.780Z,409.00
2019-01-17T20:00:26.577Z,396.77
2019-01-17T20:02:55.268Z,360.37
2019-01-17T20:05:29.780Z,376.53
2019-01-17T20:07:58.562Z,237.27
2019-01-17T20:10:32.157Z,224.10
2019-01-17T20:13:01.003Z,332.63
2019-01-17T20:15:29.713Z,310.47
2019-01-17T20:17:58.399Z,318.63
2019-01-17T20:20:31.818Z,272.13
2019-01-17T20:22:57.568Z,301.10
2019-01-17T20:25:26.282Z,286.13
2019-01-17T20:27:55.106Z,161.73
2019-01-17T20:30:26.485Z,132.20
2019-01-17T20:32:56.686Z,104.17
2019-01-17T20:35:25.507Z,91.67
2019-01-17T20:37:54.185Z,88.37
2019-01-17T20:40:24.664Z,95.63
2019-01-17T20:42:53.838Z,91.80
2019-01-17T20:45:22.823Z,90.53
2019-01-17T20:47:51.513Z,75.00
2019-01-17T20:50:28.725Z,60.30
2019-01-17T20:52:57.401Z,56.90
2019-01-17T20:55:26.080Z,60.80
2019-01-17T20:57:54.814Z,112.70
2019-01-17T21:00:29.688Z,86.20
2019-01-17T21:02:58.493Z,103.33
2019-01-17T21:05:28.096Z,124.00
2019-01-17T21:07:56.835Z,111.20
2019-01-17T21:10:25.601Z,114.90
2019-01-17T21:12:54.459Z,89.77
2019-01-17T21:15:23.153Z,86.33
2019-01-17T21:17:51.838Z,79.20
2019-01-17T21:20:20.584Z,76.47
2019-01-17T21:22:49.275Z,74.60
2019-01-17T21:25:19.934Z,78.03
2019-01-17T21:27:48.681Z,67.70
2019-01-17T21:30:22.969Z,57.03
2019-01-17T21:32:51.756Z,47.17
2019-01-17T21:35:20.666Z,43.67
2019-01-17T21:37:49.355Z,41.53
2019-01-17T21:40:22.986Z,43.73
2019-01-17T21:42:51.826Z,53.57
2019-01-17T21:45:20.910Z,49.87
2019-01-17T21:47:49.599Z,51.23
2019-01-17T21:50:24.402Z,99.00
2019-01-17T21:52:53.089Z,121.87
2019-01-17T21:55:21.822Z,133.10
2019-01-17T21:57:50.554Z,75.97
2019-01-17T22:00:24.919Z,334.30
2019-01-17T22:02:53.610Z,156.57
2019-01-17T22:05:22.926Z,191.67
2019-01-17T22:07:51.711Z,160.90
2019-01-17T22:10:21.796Z,173.47
2019-01-17T22:12:50.514Z,215.13
2019-01-17T22:15:24.557Z,194.57
2019-01-17T22:17:53.550Z,132.17
2019-01-17T22:20:22.272Z,127.27
2019-01-17T22:22:51.060Z,125.40
2019-01-17T22:25:20.977Z,117.07
2019-01-17T22:27:51.605Z,571.70
2019-01-17T22:30:25.437Z,275.17
2019-01-17T22:32:54.115Z,185.47
2019-01-17T22:35:23.385Z,151.17
2019-01-17T22:37:52.120Z,128.97
2019-01-17T22:40:20.912Z,91.73
2019-01-17T22:42:49.651Z,91.93
2019-01-17T22:45:29.999Z,105.73
2019-01-17T22:47:58.855Z,114.90
2019-01-17T22:50:27.652Z,114.03
2019-01-17T22:52:56.432Z,123.37
2019-01-17T22:55:25.263Z,98.17
2019-01-17T22:57:53.944Z,84.33
2019-01-17T23:00:51.146Z,82.87
2019-01-17T23:03:25.466Z,120.43
2019-01-17T23:05:54.149Z,128.13
2019-01-17T23:08:25.368Z,157.83
2019-01-17T23:10:54.053Z,176.00
2019-01-17T23:13:22.668Z,126.87
2019-01-17T23:15:51.473Z,126.43
2019-01-17T23:18:20.114Z,101.37
2019-01-17T23:20:48.794Z,94.07
2019-01-17T23:23:17.512Z,92.50
2019-01-17T23:25:46.200Z,108.03
2019-01-17T23:28:14.890Z,108.33
2019-01-17T23:30:43.633Z,93.17
2019-01-17T23:33:12.307Z,97.90
2019-01-17T23:35:41.087Z,97.37
2019-01-17T23:38:09.827Z,110.10
2019-01-17T23:40:38.515Z,100.37
2019-01-17T23:43:07.201Z,91.10
2019-01-17T23:45:35.928Z,70.13
2019-01-17T23:48:04.711Z,127.70
2019-01-17T23:50:33.395Z,88.10
2019-01-17T23:53:02.347Z,72.00
2019-01-17T23:55:31.031Z,87.87
2019-01-17T23:57:59.725Z,84.87
